Ranchester, WY (82839)

12:13 PM MST on December 28, 2014 (GMT -0700)
KWYSHERI2 | Change Station
CLOSE
Current Station
Personal Weather Station
Location: Sheridan, WY
Elevation: 3828 ft
Nearby Weather Stations
Active Advisory: Winter Weather Advisory

Elev 3828 ft 44.81 °N, 106.98 °W | Updated 1 minute ago

Overcast
Overcast
22.9 °F
Feels Like 23 °F
N
0.0
Wind Variable Wind from WSW
Gusts 0.0 mph

Today
High -- | Low -- °F
--% Chance of Precip.
Yesterday
High -- | Low -- °F
Precip. -- in
7:45 AM 4:34 PM
Waxing Crescent, 50% visible
Pressure 30.07 in
Visibility 10.0 miles
Clouds Scattered Clouds 6000 ft
Overcast 7000 ft
Windchill 23 °F
Dew Point 12 °F
Humidity 62%
Rainfall 0.00 in
Snow Depth Not available.
UV 1 out of 12
Pollen .10 out of 12
Air Quality Not available.
Flu Activity Not available.
METAR KSHR 281853Z AUTO 00000KT 10SM SCT060 OVC070 M06/M12 A2987 RMK AO2 SLP183 T10561117

More Conditions Fewer Conditions

Pressure 30.07 in
Visibility 10.0 miles
Clouds Scattered Clouds 6000 ft
Overcast 7000 ft
Windchill 23 °F
Dew Point 12 °F
Humidity 62%
Rainfall 0.00 in
Snow Depth Not available.
UV 1 out of 12
Pollen .10 out of 12
Air Quality Not available.
Flu Activity Not available.
METAR KSHR 281853Z AUTO 00000KT 10SM SCT060 OVC070 M06/M12 A2987 RMK AO2 SLP183 T10561117

More Conditions Fewer Conditions

10-Day Weather Forecast

Almanac

Astronomy

Dec. 28, 2014 Rise Set
Actual Time
Civil Twilight
Nautical Twilight
Astronomical Twilight
Moon
Length of Visible Light
Length of Day
Tomorrow will be .
, % of the Moon is Illuminated

Today's Extremes

State Highs State Lows

Community

WunderPhotos

Upload Photos

1,781,400 photos uploaded!

WunderBlogs® & News

Nearby

Air Quality

  Air Quality AQ Index Pollutant
Not available.

Snow Depth

Station Depth Elevation

Earthquake Activity

City Distance Mag. Time & Date
Minimum magnitude displayed is 2.5.

Coastal Water Temperatures

Place Temperature

Nearby Weather Stations